Time;durP1;ratioP1;P1;durP2;ratioP2;P2;SDS_P1;SDS_P2;PMS_P1;PMS_P2;Temp;Humidity;BMP_temperature;BMP_pressure;BME280_temperature;BME280_humidity;BME280_pressure;Samples;Min_cycle;Max_cycle;Signal;HPM_P1;HPM_P2
2023/04/10 00:00:25;;;;;;;7.95;5.75;;;3.40;99.90;;;;;;5010326;28;20214;-68
2023/04/10 00:02:52;;;;;;;9.05;6.13;;;3.40;99.90;;;;;;5009950;28;20338;-68
2023/04/10 00:05:19;;;;;;;7.85;5.68;;;3.30;99.90;;;;;;5010508;28;20202;-69
2023/04/10 00:07:47;;;;;;;6.63;5.50;;;3.30;99.90;;;;;;5010227;28;20218;-68
2023/04/10 00:10:13;;;;;;;10.70;6.40;;;3.30;99.90;;;;;;5010048;28;20206;-68
2023/04/10 00:12:40;;;;;;;10.18;6.30;;;3.20;99.90;;;;;;5010157;28;20206;-68
2023/04/10 00:15:08;;;;;;;10.00;6.15;;;3.20;99.90;;;;;;5010435;28;20218;-68
2023/04/10 00:17:35;;;;;;;7.80;5.38;;;3.20;99.90;;;;;;5010138;28;20229;-69
2023/04/10 00:20:02;;;;;;;8.98;6.50;;;3.20;99.90;;;;;;5009971;28;20233;-68
2023/04/10 00:22:29;;;;;;;9.90;5.90;;;3.20;99.90;;;;;;5010227;28;20635;-68
2023/04/10 00:24:57;;;;;;;10.60;6.15;;;3.20;99.90;;;;;;5010075;28;20202;-69
2023/04/10 00:27:24;;;;;;;9.00;5.70;;;3.10;99.90;;;;;;5010170;28;20230;-68
2023/04/10 00:29:51;;;;;;;7.78;5.40;;;3.10;99.90;;;;;;5009758;28;20202;-68
2023/04/10 00:32:17;;;;;;;10.60;5.85;;;3.00;99.90;;;;;;5010101;28;20198;-68
2023/04/10 00:34:44;;;;;;;8.48;6.25;;;3.00;99.90;;;;;;5009965;28;20260;-69
2023/04/10 00:37:11;;;;;;;9.60;6.30;;;3.00;99.90;;;;;;5009903;28;20261;-67
2023/04/10 00:39:37;;;;;;;8.93;6.57;;;2.90;99.90;;;;;;5009926;28;20218;-69
2023/04/10 00:42:08;;;;;;;6.88;5.82;;;2.90;99.90;;;;;;5013424;28;20217;-68
2023/04/10 00:44:36;;;;;;;8.73;5.80;;;2.90;99.90;;;;;;5014249;28;20238;-71
2023/04/10 00:47:03;;;;;;;9.55;5.78;;;2.80;99.90;;;;;;5013521;28;20225;-68
2023/04/10 00:49:30;;;;;;;6.50;5.90;;;2.80;99.90;;;;;;5013842;28;20309;-67
2023/04/10 00:51:57;;;;;;;10.90;5.35;;;2.80;99.90;;;;;;5013761;28;20736;-68
2023/04/10 00:54:24;;;;;;;8.55;6.15;;;2.80;99.90;;;;;;5014021;28;20206;-68
2023/04/10 00:56:50;;;;;;;7.63;5.03;;;2.70;99.90;;;;;;5013417;28;20222;-68
2023/04/10 00:59:19;;;;;;;6.60;5.07;;;2.70;99.90;;;;;;5013406;28;20229;-68
2023/04/10 01:01:45;;;;;;;9.45;5.68;;;2.70;99.90;;;;;;5013590;28;20202;-68
2023/04/10 01:04:14;;;;;;;8.35;5.90;;;2.60;99.90;;;;;;5013588;28;20275;-68
2023/04/10 01:06:55;;;;;;;9.32;6.40;;;2.60;99.90;;;;;;5013340;28;20643;-68
2023/04/10 01:09:32;;;;;;;9.00;6.72;;;2.60;99.90;;;;;;5013577;28;20198;-68
2023/04/10 01:12:08;;;;;;;7.07;5.95;;;2.60;99.90;;;;;;5013383;28;20213;-68
2023/04/10 01:14:42;;;;;;;8.27;5.75;;;2.50;99.90;;;;;;5013621;28;20234;-68
2023/04/10 01:17:17;;;;;;;7.00;5.03;;;2.50;99.90;;;;;;5013243;28;20249;-68
2023/04/10 01:20:08;;;;;;;8.93;5.65;;;2.50;99.90;;;;;;5013014;28;20701;-68
2023/04/10 01:22:39;;;;;;;8.07;5.38;;;2.50;99.90;;;;;;5011547;28;20198;-68
2023/04/10 01:25:29;;;;;;;8.15;5.03;;;2.40;99.90;;;;;;5015816;28;20202;-68
2023/04/10 01:28:06;;;;;;;9.18;5.65;;;2.50;99.90;;;;;;5016200;28;20214;-68
2023/04/10 01:30:36;;;;;;;7.40;5.82;;;2.50;99.90;;;;;;5016457;28;20190;-68
2023/04/10 01:33:05;;;;;;;9.40;5.85;;;2.40;99.90;;;;;;5015876;28;20202;-68
2023/04/10 01:35:34;;;;;;;8.63;5.20;;;2.30;99.90;;;;;;5013300;28;20207;-68
2023/04/10 01:38:04;;;;;;;7.60;5.25;;;2.30;99.90;;;;;;5013161;28;20203;-68
2023/04/10 01:40:32;;;;;;;7.30;5.00;;;2.30;99.90;;;;;;5012710;28;20218;-68
2023/04/10 01:43:01;;;;;;;9.18;6.38;;;2.30;99.90;;;;;;5012798;28;20221;-68
2023/04/10 01:45:28;;;;;;;9.63;5.47;;;2.30;99.90;;;;;;5013081;28;20210;-68
2023/04/10 01:47:57;;;;;;;8.85;5.65;;;2.30;99.90;;;;;;5012939;28;20565;-67
2023/04/10 01:50:26;;;;;;;10.57;5.88;;;2.30;99.90;;;;;;5012929;28;20195;-68
2023/04/10 01:52:54;;;;;;;7.78;6.18;;;2.20;99.90;;;;;;5012006;28;20207;-67
2023/04/10 01:55:22;;;;;;;7.63;5.55;;;2.20;99.90;;;;;;5012725;28;20592;-68
2023/04/10 01:57:49;;;;;;;10.85;7.28;;;2.20;99.90;;;;;;5012539;28;20218;-67
2023/04/10 02:00:16;;;;;;;6.93;6.07;;;2.20;99.90;;;;;;5012297;28;20219;-68
2023/04/10 02:02:44;;;;;;;7.97;6.13;;;2.10;99.90;;;;;;5012574;28;20575;-68
2023/04/10 02:05:12;;;;;;;8.55;5.90;;;2.10;99.90;;;;;;5012766;28;20210;-68
2023/04/10 02:07:45;;;;;;;8.25;5.95;;;2.20;99.90;;;;;;5012284;28;20225;-67
2023/04/10 02:10:16;;;;;;;10.70;6.68;;;2.20;99.90;;;;;;5012389;28;20199;-68
2023/04/10 02:12:49;;;;;;;9.35;6.07;;;2.10;99.90;;;;;;5012492;28;20692;-68
2023/04/10 02:15:18;;;;;;;7.82;5.45;;;2.10;99.90;;;;;;5012620;28;20290;-68
2023/04/10 02:17:46;;;;;;;6.70;5.63;;;2.10;99.90;;;;;;5012090;28;20214;-68
2023/04/10 02:20:15;;;;;;;10.32;5.63;;;2.00;99.90;;;;;;5011942;28;20219;-67
2023/04/10 02:22:43;;;;;;;10.07;6.22;;;2.00;99.90;;;;;;5012267;28;20198;-68
2023/04/10 02:25:10;;;;;;;8.77;5.60;;;2.00;99.90;;;;;;5012156;28;20734;-68
2023/04/10 02:27:38;;;;;;;9.98;5.50;;;2.00;99.90;;;;;;5011898;28;20219;-67
2023/04/10 02:30:06;;;;;;;12.25;7.30;;;2.00;99.90;;;;;;5011893;28;20194;-68
2023/04/10 02:32:33;;;;;;;9.55;6.05;;;2.00;99.90;;;;;;5012033;28;20202;-68
2023/04/10 02:35:00;;;;;;;8.00;5.70;;;2.00;99.90;;;;;;5012140;28;20561;-67
2023/04/10 02:37:28;;;;;;;9.00;6.30;;;1.90;99.90;;;;;;5011953;28;20222;-67
2023/04/10 02:39:55;;;;;;;8.50;5.63;;;1.90;99.90;;;;;;5011572;28;20218;-68
2023/04/10 02:42:22;;;;;;;11.70;7.30;;;1.90;99.90;;;;;;5011784;28;20226;-68
2023/04/10 02:44:48;;;;;;;8.68;6.10;;;1.90;99.90;;;;;;5012023;28;20202;-69
2023/04/10 02:47:17;;;;;;;7.65;5.20;;;1.90;99.90;;;;;;5011635;28;20225;-69
2023/04/10 02:49:44;;;;;;;11.05;6.70;;;1.90;99.90;;;;;;5011559;28;20194;-69
2023/04/10 02:52:10;;;;;;;8.57;6.00;;;1.80;99.90;;;;;;5011693;28;20198;-69
2023/04/10 02:54:39;;;;;;;7.95;5.75;;;1.80;99.90;;;;;;5011686;28;20544;-69
2023/04/10 02:57:06;;;;;;;9.60;5.93;;;1.80;99.90;;;;;;5011295;28;20228;-68
2023/04/10 02:59:33;;;;;;;9.45;6.55;;;1.80;99.90;;;;;;5011413;28;20218;-69
2023/04/10 03:01:59;;;;;;;9.23;6.15;;;1.80;99.90;;;;;;5011432;28;20194;-69
2023/04/10 03:04:26;;;;;;;10.80;6.45;;;1.80;99.90;;;;;;5010555;28;20619;-69
2023/04/10 03:06:53;;;;;;;9.88;5.95;;;1.80;99.90;;;;;;5011034;28;20226;-69
2023/04/10 03:09:20;;;;;;;10.50;5.63;;;1.80;99.90;;;;;;5010951;28;20205;-69
2023/04/10 03:11:48;;;;;;;9.20;6.05;;;1.80;99.90;;;;;;5011086;28;20209;-69
2023/04/10 03:14:15;;;;;;;9.90;6.72;;;1.80;99.90;;;;;;5011283;28;20607;-69
2023/04/10 03:16:42;;;;;;;12.00;6.10;;;1.80;99.90;;;;;;5010966;28;20313;-68
2023/04/10 03:19:09;;;;;;;7.95;6.53;;;1.80;99.90;;;;;;5010905;28;20210;-69
2023/04/10 03:21:35;;;;;;;5.65;5.15;;;1.80;99.90;;;;;;5011097;28;20202;-69
2023/04/10 03:24:02;;;;;;;9.05;6.05;;;1.80;99.90;;;;;;5011334;28;20202;-69
2023/04/10 03:26:29;;;;;;;7.63;5.30;;;1.80;99.90;;;;;;4994853;28;20224;-69
2023/04/10 03:28:57;;;;;;;6.78;5.72;;;1.80;99.90;;;;;;5010879;28;20210;-69
2023/04/10 03:31:24;;;;;;;8.25;6.30;;;1.80;99.90;;;;;;5010886;28;20202;-69
2023/04/10 03:33:50;;;;;;;9.30;6.28;;;1.70;99.90;;;;;;5010738;28;20206;-69
2023/04/10 03:36:17;;;;;;;11.50;5.75;;;1.70;99.90;;;;;;5010636;28;20249;-69
2023/04/10 03:38:44;;;;;;;9.82;6.13;;;1.60;99.90;;;;;;5010866;28;20289;-69
2023/04/10 03:41:11;;;;;;;10.10;6.00;;;1.70;99.90;;;;;;5010438;28;20215;-69
2023/04/10 03:43:38;;;;;;;9.65;6.18;;;1.70;99.90;;;;;;5010732;28;20203;-69
2023/04/10 03:46:07;;;;;;;8.32;5.90;;;1.60;99.90;;;;;;5010298;28;20218;-69
2023/04/10 03:48:33;;;;;;;8.73;5.97;;;1.60;99.90;;;;;;5010742;28;20202;-69
2023/04/10 03:51:00;;;;;;;10.75;5.65;;;1.60;99.90;;;;;;5010410;28;20199;-68
2023/04/10 03:53:27;;;;;;;10.48;6.20;;;1.60;99.90;;;;;;5010599;28;20654;-69
2023/04/10 03:55:54;;;;;;;7.95;5.72;;;1.60;99.90;;;;;;5010285;28;20218;-70
2023/04/10 03:58:20;;;;;;;8.40;5.43;;;1.60;99.90;;;;;;5011034;28;20588;-69
2023/04/10 04:00:47;;;;;;;7.82;5.53;;;1.60;99.90;;;;;;5010318;28;20218;-68
2023/04/10 04:03:15;;;;;;;8.70;5.93;;;1.60;99.90;;;;;;5010544;28;20202;-68
2023/04/10 04:05:42;;;;;;;9.52;6.60;;;1.60;99.90;;;;;;5010458;28;20577;-68
2023/04/10 04:08:09;;;;;;;9.57;6.38;;;1.60;99.90;;;;;;5010188;28;20202;-68
2023/04/10 04:10:35;;;;;;;8.68;6.03;;;1.60;99.90;;;;;;5009633;28;20191;-69
2023/04/10 04:13:02;;;;;;;6.95;4.82;;;1.60;99.90;;;;;;5010203;28;20549;-69
2023/04/10 04:15:29;;;;;;;8.02;6.15;;;1.60;99.90;;;;;;5009898;28;20206;-69
2023/04/10 04:17:56;;;;;;;9.00;6.15;;;1.60;99.90;;;;;;5010160;28;20230;-69
2023/04/10 04:20:24;;;;;;;10.32;6.07;;;1.60;99.90;;;;;;5009990;28;20214;-69
2023/04/10 04:22:51;;;;;;;7.28;5.43;;;1.50;99.90;;;;;;5010168;28;20206;-69
2023/04/10 04:25:18;;;;;;;8.63;5.80;;;1.60;99.90;;;;;;5010022;28;20198;-69
2023/04/10 04:27:45;;;;;;;10.48;6.40;;;1.50;99.90;;;;;;5009897;28;20309;-69
2023/04/10 04:30:12;;;;;;;8.13;6.40;;;1.50;99.90;;;;;;5009866;28;20190;-69
2023/04/10 04:32:39;;;;;;;6.45;5.30;;;1.50;99.90;;;;;;5010129;28;20207;-69
2023/04/10 04:35:07;;;;;;;7.97;5.38;;;1.60;99.90;;;;;;5022095;23;20440;-68
2023/04/10 04:37:35;;;;;;;10.38;6.63;;;1.60;99.90;;;;;;5009496;28;20590;-68
2023/04/10 04:40:02;;;;;;;9.32;6.10;;;1.60;99.90;;;;;;5009432;28;20218;-67
2023/04/10 04:42:28;;;;;;;11.13;6.00;;;1.60;99.90;;;;;;5009580;28;20268;-67
2023/04/10 04:44:55;;;;;;;6.90;5.85;;;1.60;99.90;;;;;;5010184;28;20194;-68
2023/04/10 04:47:23;;;;;;;8.77;5.55;;;1.70;99.90;;;;;;5009474;28;20222;-67
2023/04/10 04:49:49;;;;;;;7.38;5.57;;;1.70;99.90;;;;;;5009707;28;20572;-68
2023/04/10 04:52:16;;;;;;;10.20;6.15;;;1.70;99.90;;;;;;5009615;28;20207;-68
2023/04/10 04:54:44;;;;;;;8.98;6.00;;;1.70;99.90;;;;;;5009896;28;20208;-67
2023/04/10 04:57:11;;;;;;;11.25;6.93;;;1.70;99.90;;;;;;5009559;28;20218;-68
2023/04/10 04:59:38;;;;;;;8.88;6.03;;;1.80;99.90;;;;;;5009444;28;20202;-68
2023/04/10 05:02:04;;;;;;;9.63;6.45;;;1.90;99.90;;;;;;5009868;28;20625;-68
2023/04/10 05:04:31;;;;;;;12.35;6.00;;;1.90;99.90;;;;;;5009369;28;20199;-68
2023/04/10 05:06:58;;;;;;;7.82;5.88;;;1.90;99.90;;;;;;5009602;28;20725;-68
2023/04/10 05:09:24;;;;;;;9.18;5.78;;;2.00;99.90;;;;;;5009015;28;20551;-68
2023/04/10 05:11:53;;;;;;;9.70;5.97;;;2.00;99.90;;;;;;5009823;28;20194;-68
2023/04/10 05:14:20;;;;;;;9.48;6.32;;;2.10;99.90;;;;;;5009406;28;20647;-68
2023/04/10 05:16:47;;;;;;;12.65;7.10;;;2.10;99.90;;;;;;5009540;28;20214;-68
2023/04/10 05:19:13;;;;;;;7.93;6.22;;;2.20;99.90;;;;;;5009238;28;20548;-68
2023/04/10 05:21:40;;;;;;;12.60;6.40;;;2.30;99.90;;;;;;5009651;28;20222;-68
2023/04/10 05:24:07;;;;;;;7.78;5.22;;;2.30;99.90;;;;;;5009634;28;20210;-68
2023/04/10 05:26:34;;;;;;;9.18;6.50;;;2.40;99.90;;;;;;5009075;28;20218;-68
2023/04/10 05:29:02;;;;;;;10.70;6.10;;;2.50;99.90;;;;;;5012690;28;20203;-68
2023/04/10 05:31:28;;;;;;;9.10;6.15;;;2.50;99.90;;;;;;5013051;28;20202;-68
2023/04/10 05:33:55;;;;;;;11.80;6.88;;;2.60;99.90;;;;;;5012974;28;20214;-68
2023/04/10 05:36:22;;;;;;;7.75;6.03;;;2.70;99.90;;;;;;5012348;28;20218;-68
2023/04/10 05:38:48;;;;;;;8.52;6.15;;;2.70;99.90;;;;;;5012602;28;20627;-68
2023/04/10 05:41:15;;;;;;;6.47;5.05;;;2.80;99.90;;;;;;5012559;28;20221;-68
2023/04/10 05:43:42;;;;;;;8.43;6.72;;;2.90;99.90;;;;;;5012736;28;20519;-68
2023/04/10 05:46:11;;;;;;;9.25;6.30;;;3.00;99.90;;;;;;5012635;28;20277;-68
2023/04/10 05:48:37;;;;;;;9.57;6.38;;;3.10;99.90;;;;;;4996765;28;20651;-68
2023/04/10 05:51:05;;;;;;;9.15;6.50;;;3.20;99.90;;;;;;5012621;28;20568;-68
2023/04/10 05:53:32;;;;;;;8.32;6.07;;;3.30;99.90;;;;;;5012753;28;20198;-68
2023/04/10 05:55:59;;;;;;;11.02;6.93;;;3.40;99.90;;;;;;5012794;28;20219;-68
2023/04/10 05:58:26;;;;;;;9.55;5.65;;;3.50;99.90;;;;;;5012706;28;20654;-68
2023/04/10 06:00:52;;;;;;;9.38;6.45;;;3.60;99.90;;;;;;5012502;28;20302;-68
2023/04/10 06:03:20;;;;;;;8.60;5.93;;;3.80;99.90;;;;;;5012600;28;20684;-67
2023/04/10 06:05:47;;;;;;;7.18;5.35;;;3.80;99.90;;;;;;5012869;28;20206;-67
2023/04/10 06:08:14;;;;;;;9.05;6.72;;;4.00;99.90;;;;;;5012344;28;20198;-68
2023/04/10 06:10:41;;;;;;;7.00;5.13;;;4.20;99.90;;;;;;5012230;28;20201;-67
2023/04/10 06:13:07;;;;;;;7.95;6.35;;;4.30;99.90;;;;;;5012714;28;20678;-67
2023/04/10 06:15:34;;;;;;;8.27;6.07;;;4.50;99.90;;;;;;5012182;28;20626;-68
2023/04/10 06:18:01;;;;;;;9.65;6.60;;;4.60;99.90;;;;;;5012490;28;20205;-69
2023/04/10 06:20:29;;;;;;;7.85;5.72;;;4.70;99.90;;;;;;5011778;28;20816;-68
2023/04/10 06:22:56;;;;;;;9.18;6.00;;;4.90;99.90;;;;;;5012379;28;20588;-68
2023/04/10 06:25:22;;;;;;;8.98;6.93;;;5.00;99.90;;;;;;5012006;28;20202;-68
2023/04/10 06:27:49;;;;;;;7.60;5.20;;;5.10;99.90;;;;;;5012232;28;20229;-67
2023/04/10 06:30:16;;;;;;;8.07;6.07;;;5.10;99.90;;;;;;5011683;28;20686;-67
2023/04/10 06:32:42;;;;;;;7.60;5.15;;;5.20;99.90;;;;;;5012284;28;20595;-67
2023/04/10 06:35:09;;;;;;;6.75;5.53;;;5.30;99.90;;;;;;5012036;28;20209;-67
2023/04/10 06:37:37;;;;;;;9.20;5.60;;;5.50;99.90;;;;;;5011675;28;20571;-68
2023/04/10 06:40:07;;;;;;;7.68;5.28;;;5.50;99.90;;;;;;5011646;28;20198;-68
2023/04/10 06:42:34;;;;;;;10.55;5.85;;;5.70;99.90;;;;;;5011305;28;20302;-68
2023/04/10 06:45:01;;;;;;;8.02;5.88;;;5.80;99.90;;;;;;5012184;28;20199;-68
2023/04/10 06:47:28;;;;;;;8.25;5.93;;;5.90;99.90;;;;;;5011327;28;20233;-68
2023/04/10 06:49:55;;;;;;;8.95;6.93;;;6.00;99.90;;;;;;5011892;28;20203;-68
2023/04/10 06:52:22;;;;;;;7.40;6.35;;;6.10;99.90;;;;;;5011569;28;20704;-67
2023/04/10 06:54:50;;;;;;;11.10;6.35;;;6.20;99.90;;;;;;5011703;28;20575;-67
2023/04/10 06:57:17;;;;;;;7.85;5.47;;;6.30;99.90;;;;;;5011355;28;20234;-68
2023/04/10 06:59:44;;;;;;;9.40;6.30;;;6.40;99.90;;;;;;5011348;28;20198;-68
2023/04/10 07:02:11;;;;;;;7.35;5.95;;;6.60;99.90;;;;;;5011684;28;20237;-67
2023/04/10 07:04:37;;;;;;;7.57;5.75;;;6.70;99.90;;;;;;5011318;28;20566;-67
2023/04/10 07:07:08;;;;;;;8.35;5.82;;;6.80;99.90;;;;;;5011473;28;20222;-67
2023/04/10 07:09:35;;;;;;;7.57;5.40;;;6.90;99.90;;;;;;5011074;28;20298;-68
2023/04/10 07:12:03;;;;;;;7.63;5.90;;;7.00;99.90;;;;;;5011558;28;20197;-67
2023/04/10 07:14:31;;;;;;;8.35;6.07;;;7.10;99.90;;;;;;5011397;28;20210;-68
2023/04/10 07:16:57;;;;;;;7.15;5.13;;;7.20;99.90;;;;;;5011310;28;20222;-67
2023/04/10 07:19:24;;;;;;;9.75;6.68;;;7.30;99.90;;;;;;5010959;28;20209;-68
2023/04/10 07:21:51;;;;;;;8.30;5.80;;;7.40;99.90;;;;;;5011154;28;20214;-67
2023/04/10 07:24:18;;;;;;;6.70;5.85;;;7.60;99.90;;;;;;5010885;28;20671;-68
2023/04/10 07:26:45;;;;;;;7.65;5.82;;;7.70;99.90;;;;;;5009481;28;20218;-68
2023/04/10 07:29:14;;;;;;;7.22;5.88;;;7.80;99.90;;;;;;5007082;28;20573;-68
2023/04/10 07:31:41;;;;;;;8.20;6.72;;;8.00;99.90;;;;;;5007701;28;20447;-68
2023/04/10 07:34:08;;;;;;;8.25;5.75;;;8.10;99.90;;;;;;5010711;28;20203;-68
2023/04/10 07:36:35;;;;;;;6.45;5.20;;;8.20;99.90;;;;;;5009891;28;20230;-68
2023/04/10 07:39:01;;;;;;;6.70;4.93;;;8.40;99.90;;;;;;5010520;28;20670;-68
2023/04/10 07:41:28;;;;;;;6.10;4.70;;;8.60;99.90;;;;;;5010792;28;20329;-68
2023/04/10 07:43:55;;;;;;;5.97;4.55;;;8.70;99.90;;;;;;5011181;28;20205;-68
2023/04/10 07:46:23;;;;;;;5.38;4.50;;;8.90;99.90;;;;;;5010522;28;20222;-68
2023/04/10 07:48:50;;;;;;;5.57;4.32;;;9.10;99.90;;;;;;5010548;28;20206;-68
2023/04/10 07:51:16;;;;;;;6.03;4.55;;;9.10;99.90;;;;;;5009743;28;20220;-68
2023/04/10 07:53:43;;;;;;;5.70;3.72;;;9.30;99.90;;;;;;5010217;28;20210;-68
2023/04/10 07:56:15;;;;;;;5.65;4.03;;;9.60;99.90;;;;;;5010632;28;20233;-68
2023/04/10 07:58:42;;;;;;;5.65;4.30;;;10.00;99.90;;;;;;5009892;28;20294;-68
2023/04/10 08:01:09;;;;;;;4.97;4.30;;;10.20;99.80;;;;;;5007155;28;20233;-68
2023/04/10 08:03:40;;;;;;;5.28;3.85;;;10.60;99.90;;;;;;5010104;28;20205;-68
2023/04/10 08:06:08;;;;;;;5.20;4.30;;;11.00;98.80;;;;;;5010640;28;20308;-68
2023/04/10 08:08:35;;;;;;;6.00;4.25;;;11.50;99.40;;;;;;5010149;28;20253;-68
2023/04/10 08:11:02;;;;;;;5.68;3.95;;;12.00;99.10;;;;;;5010280;28;20248;-68
2023/04/10 08:13:28;;;;;;;5.03;4.00;;;12.20;95.60;;;;;;5010590;28;20705;-68
2023/04/10 08:15:55;;;;;;;4.50;3.75;;;12.40;96.10;;;;;;5010362;28;20214;-67
2023/04/10 08:18:22;;;;;;;3.72;3.00;;;12.70;95.60;;;;;;5010263;28;20206;-67
2023/04/10 08:20:50;;;;;;;4.30;3.53;;;13.00;95.20;;;;;;5009853;28;20202;-67
2023/04/10 08:23:16;;;;;;;5.53;3.30;;;13.30;95.60;;;;;;5010396;28;20468;-67
2023/04/10 08:25:43;;;;;;;3.40;3.00;;;13.80;93.80;;;;;;5009867;28;20841;-67
2023/04/10 08:28:10;;;;;;;4.00;3.20;;;14.50;93.60;;;;;;5010212;28;20862;-67
2023/04/10 08:30:36;;;;;;;3.33;2.90;;;15.00;92.20;;;;;;5009667;28;20457;-67
2023/04/10 08:33:03;;;;;;;4.50;3.37;;;15.20;91.20;;;;;;5010300;28;20469;-67
2023/04/10 08:35:30;;;;;;;3.93;3.40;;;15.30;90.50;;;;;;5009775;28;20469;-67
2023/04/10 08:37:58;;;;;;;3.60;3.10;;;15.30;89.80;;;;;;5010024;28;20457;-67
2023/04/10 08:40:24;;;;;;;4.40;3.50;;;15.40;89.90;;;;;;5009628;28;20959;-67
2023/04/10 08:42:51;;;;;;;4.00;3.20;;;15.40;88.90;;;;;;4995525;28;20477;-67
2023/04/10 08:45:18;;;;;;;3.50;3.13;;;15.50;90.00;;;;;;5006034;28;20461;-67
2023/04/10 08:47:47;;;;;;;3.70;3.27;;;15.70;89.20;;;;;;5008850;28;20492;-67
2023/04/10 08:50:17;;;;;;;3.97;3.03;;;16.30;90.10;;;;;;5009531;28;20515;-67
2023/04/10 08:52:46;;;;;;;3.47;3.10;;;16.30;85.70;;;;;;4984743;28;20463;-67
2023/04/10 08:55:15;;;;;;;4.30;3.90;;;16.30;84.60;;;;;;5000895;28;20461;-67
2023/04/10 08:57:42;;;;;;;3.43;3.10;;;16.40;87.60;;;;;;5009003;28;20481;-67
2023/04/10 09:00:09;;;;;;;2.80;2.60;;;16.70;87.30;;;;;;5009593;28;20461;-67
2023/04/10 09:02:39;;;;;;;3.83;2.87;;;16.60;82.30;;;;;;5011804;28;20863;-67
2023/04/10 09:05:10;;;;;;;3.50;3.20;;;16.30;82.70;;;;;;5013795;28;20493;-67
2023/04/10 09:07:37;;;;;;;3.60;2.67;;;16.40;84.00;;;;;;5012790;28;20481;-67
2023/04/10 09:10:04;;;;;;;2.77;2.47;;;16.80;83.80;;;;;;5013531;28;20813;-67
2023/04/10 09:12:43;;;;;;;3.10;2.47;;;17.10;82.40;;;;;;5012353;28;20461;-66
2023/04/10 09:15:10;;;;;;;2.90;2.70;;;17.50;83.10;;;;;;5013717;28;20519;-67
2023/04/10 09:17:37;;;;;;;2.97;2.43;;;17.90;81.70;;;;;;5012612;28;20513;-67
2023/04/10 09:20:20;;;;;;;3.77;2.93;;;18.10;79.10;;;;;;5005928;28;20535;-67
2023/04/10 09:22:47;;;;;;;3.17;2.87;;;18.50;79.30;;;;;;5014276;28;20490;-66
2023/04/10 09:25:30;;;;;;;3.03;2.70;;;18.80;79.60;;;;;;4982940;28;20554;-66
2023/04/10 09:28:03;;;;;;;3.87;2.70;;;19.60;79.40;;;;;;4997904;28;20472;-72
2023/04/10 09:30:36;;;;;;;2.50;2.20;;;19.80;77.40;;;;;;5012559;28;20463;-68
2023/04/10 09:33:20;;;;;;;3.30;2.60;;;19.40;78.00;;;;;;5012976;28;20491;-68
2023/04/10 09:35:47;;;;;;;2.90;2.20;;;19.40;75.00;;;;;;5005560;28;20465;-69
2023/04/10 09:38:16;;;;;;;3.13;2.70;;;19.30;79.00;;;;;;5012767;28;20547;-69
2023/04/10 09:40:44;;;;;;;2.87;2.60;;;19.70;78.60;;;;;;5012055;28;20465;-69
2023/04/10 09:43:24;;;;;;;3.10;2.67;;;20.00;77.30;;;;;;5012654;28;20481;-69
2023/04/10 09:45:53;;;;;;;2.50;2.30;;;20.60;76.40;;;;;;5012793;28;20469;-69
2023/04/10 09:48:23;;;;;;;2.90;2.60;;;20.60;73.90;;;;;;4994098;28;20469;-69
2023/04/10 09:50:51;;;;;;;2.80;2.60;;;20.90;73.70;;;;;;5002684;28;20548;-69
2023/04/10 09:53:20;;;;;;;2.17;1.97;;;21.10;73.50;;;;;;5006701;28;20461;-69
2023/04/10 09:55:48;;;;;;;2.67;2.47;;;21.30;73.70;;;;;;5010078;28;20567;-69
2023/04/10 09:58:17;;;;;;;3.07;2.60;;;21.50;71.50;;;;;;5011396;28;20970;-69
2023/04/10 10:00:47;;;;;;;2.77;2.50;;;21.70;74.90;;;;;;5010961;28;20464;-69
2023/04/10 10:03:17;;;;;;;2.60;2.40;;;21.50;70.20;;;;;;5011206;28;20474;-69
2023/04/10 10:05:45;;;;;;;2.40;2.20;;;21.60;72.50;;;;;;5003661;28;20556;-69
2023/04/10 10:08:13;;;;;;;2.47;2.07;;;22.00;73.40;;;;;;5005912;28;20487;-68
2023/04/10 10:10:44;;;;;;;2.50;2.30;;;21.90;68.80;;;;;;5009175;28;20469;-68
2023/04/10 10:13:16;;;;;;;2.30;1.93;;;21.70;68.20;;;;;;5010301;28;20502;-68
2023/04/10 10:15:47;;;;;;;2.27;2.07;;;21.90;70.10;;;;;;5010262;28;20476;-69
2023/04/10 10:18:25;;;;;;;2.43;2.23;;;22.60;67.30;;;;;;5009876;28;20511;-68
2023/04/10 10:20:53;;;;;;;2.33;2.03;;;22.90;65.70;;;;;;5009844;28;21031;-68
2023/04/10 10:23:22;;;;;;;2.73;2.30;;;23.00;67.20;;;;;;5011035;28;20496;-68
2023/04/10 10:25:52;;;;;;;2.53;2.33;;;23.60;67.20;;;;;;5001517;28;20474;-68
2023/04/10 10:28:20;;;;;;;2.70;2.50;;;23.80;68.70;;;;;;5008283;28;20486;-69
2023/04/10 10:30:50;;;;;;;2.40;2.07;;;24.40;65.60;;;;;;5007685;28;20467;-68
2023/04/10 10:33:18;;;;;;;2.40;2.20;;;25.30;68.50;;;;;;5009329;28;20524;-69
2023/04/10 10:35:45;;;;;;;2.07;1.87;;;25.50;63.50;;;;;;5010544;28;20465;-69
2023/04/10 10:40:46;;;;;;;2.23;2.03;;;24.90;61.30;;;;;;4999787;28;20498;-69
2023/04/10 10:43:18;;;;;;;1.90;1.80;;;24.70;63.10;;;;;;4990592;28;20486;-69
2023/04/10 10:45:52;;;;;;;1.77;1.67;;;24.80;62.50;;;;;;4985341;28;20500;-68
2023/04/10 10:48:19;;;;;;;2.00;1.80;;;24.70;62.10;;;;;;5001791;28;20474;-68
2023/04/10 10:50:52;;;;;;;1.80;1.70;;;25.40;64.30;;;;;;4996427;28;21101;-68
2023/04/10 10:53:32;;;;;;;1.97;1.73;;;25.50;60.00;;;;;;5011509;28;20550;-69
2023/04/10 10:55:59;;;;;;;1.90;1.80;;;23.60;59.70;;;;;;5010018;28;21085;-69
2023/04/10 10:58:48;;;;;;;1.80;1.70;;;22.80;59.50;;;;;;5009745;28;20466;-68
2023/04/10 11:01:16;;;;;;;1.90;1.70;;;22.50;63.00;;;;;;5010160;28;20850;-69
2023/04/10 11:03:44;;;;;;;1.67;1.57;;;22.70;61.20;;;;;;5009338;28;20569;-68
2023/04/10 11:06:12;;;;;;;1.73;1.47;;;22.70;62.00;;;;;;5010340;28;20607;-69
2023/04/10 11:08:45;;;;;;;1.70;1.60;;;23.00;61.30;;;;;;5003371;28;20474;-69
2023/04/10 11:11:15;;;;;;;1.73;1.63;;;23.50;60.10;;;;;;5009826;28;20523;-69
2023/04/10 11:14:04;;;;;;;1.57;1.47;;;24.10;61.10;;;;;;5010276;28;20816;-68
2023/04/10 11:16:46;;;;;;;2.03;1.73;;;23.70;56.60;;;;;;5009830;28;20524;-68
2023/04/10 11:19:14;;;;;;;1.60;1.50;;;23.40;61.10;;;;;;5012190;28;20462;-68
2023/04/10 11:22:06;;;;;;;1.50;1.40;;;23.70;58.00;;;;;;5010579;28;20889;-68
2023/04/10 11:25:09;;;;;;;1.53;1.43;;;24.70;57.90;;;;;;5010694;28;20984;-68
2023/04/10 11:27:45;;;;;;;2.13;1.60;;;24.50;55.20;;;;;;4969487;28;20918;-69
2023/04/10 11:30:35;;;;;;;1.40;1.30;;;24.60;57.20;;;;;;4968567;28;20470;-69
2023/04/10 11:33:05;;;;;;;1.73;1.60;;;25.50;57.30;;;;;;4995493;28;20473;-67
2023/04/10 11:35:34;;;;;;;1.80;1.70;;;25.80;58.30;;;;;;5010183;28;20474;-67
2023/04/10 11:38:15;;;;;;;1.67;1.57;;;26.20;58.00;;;;;;5010167;28;20467;-68
2023/04/10 11:41:03;;;;;;;1.50;1.40;;;26.60;56.60;;;;;;5008916;28;20463;-68
2023/04/10 11:43:31;;;;;;;1.70;1.60;;;27.10;56.80;;;;;;5009673;28;20489;-67
2023/04/10 11:46:03;;;;;;;1.50;1.40;;;27.60;56.80;;;;;;5009482;28;20485;-68
2023/04/10 11:48:31;;;;;;;1.70;1.50;;;28.00;56.30;;;;;;5009321;28;20500;-67
2023/04/10 11:51:00;;;;;;;2.23;1.60;;;27.90;58.80;;;;;;5008654;28;20465;-66
2023/04/10 11:53:28;;;;;;;1.40;1.30;;;27.70;53.00;;;;;;5008891;28;20471;-69
2023/04/10 11:55:55;;;;;;;1.20;1.10;;;26.60;53.20;;;;;;5009277;28;20511;-68
2023/04/10 11:58:23;;;;;;;1.30;1.20;;;25.40;51.50;;;;;;5009318;28;20950;-67
2023/04/10 12:00:57;;;;;;;1.43;1.27;;;26.00;54.40;;;;;;5008377;28;20459;-67
2023/04/10 12:03:39;;;;;;;1.10;0.80;;;26.60;52.30;;;;;;5009097;28;20482;-68
2023/04/10 12:06:11;;;;;;;1.20;1.10;;;25.90;49.90;;;;;;5009105;28;20486;-67
2023/04/10 12:08:39;;;;;;;1.30;1.20;;;26.00;54.50;;;;;;5008649;28;20470;-68
2023/04/10 12:11:06;;;;;;;1.70;1.13;;;26.50;52.80;;;;;;5008852;28;20492;-68
2023/04/10 12:13:33;;;;;;;1.17;1.07;;;26.50;52.20;;;;;;5008925;28;20831;-67
2023/04/10 12:16:01;;;;;;;1.20;1.10;;;25.90;51.60;;;;;;5006720;28;20859;-67
2023/04/10 12:18:29;;;;;;;1.00;0.90;;;26.50;54.70;;;;;;4991157;28;20480;-68
2023/04/10 12:20:58;;;;;;;1.03;0.80;;;26.50;49.20;;;;;;5009001;28;20506;-69
2023/04/10 12:23:25;;;;;;;1.03;0.90;;;26.10;48.70;;;;;;5008687;28;20484;-67
2023/04/10 12:25:53;;;;;;;1.00;0.90;;;25.50;46.90;;;;;;5009406;28;20488;-70
2023/04/10 12:28:21;;;;;;;1.30;1.10;;;24.70;47.80;;;;;;5008912;28;20836;-69
2023/04/10 12:30:48;;;;;;;1.20;1.10;;;24.20;49.80;;;;;;5004946;28;20983;-69
2023/04/10 12:33:21;;;;;;;1.10;1.00;;;23.90;49.00;;;;;;5009556;28;20490;-68
2023/04/10 12:35:47;;;;;;;1.20;1.10;;;23.40;51.00;;;;;;5009269;28;20502;-67
2023/04/10 12:38:16;;;;;;;1.10;1.00;;;22.60;50.40;;;;;;5013037;28;20462;-69
2023/04/10 12:40:58;;;;;;;1.20;1.10;;;22.60;50.10;;;;;;5013092;28;20550;-68
2023/04/10 12:43:32;;;;;;;1.27;1.00;;;22.40;48.20;;;;;;5012646;28;20481;-69
2023/04/10 12:45:59;;;;;;;1.10;1.00;;;22.30;51.70;;;;;;5012830;28;21002;-69
2023/04/10 12:48:26;;;;;;;1.37;1.27;;;22.10;50.60;;;;;;5012858;28;20468;-68
2023/04/10 12:50:53;;;;;;;1.47;1.30;;;22.20;50.40;;;;;;5012768;28;20468;-69
2023/04/10 12:53:21;;;;;;;1.40;1.20;;;22.20;52.50;;;;;;5012842;28;20460;-68
2023/04/10 12:56:12;;;;;;;1.50;1.10;;;21.50;51.70;;;;;;5012504;28;20465;-69
2023/04/10 12:58:41;;;;;;;5.37;1.37;;;21.20;53.30;;;;;;4997684;28;20472;-68
2023/04/10 13:01:09;;;;;;;1.60;1.30;;;21.20;55.60;;;;;;5012454;28;20463;-69
2023/04/10 13:03:36;;;;;;;1.20;1.10;;;21.20;54.10;;;;;;5012733;28;20519;-68